Conejos, Valles Caldera, New Mexico Weather observations

Data are for 10 minute period ending at time listed.
 Day   Time   Solar   Ave.   Ave.  Ave.  Vector  Max.   Baro.   Total    
  of    of     Rad.   Air    Rel.  Wind   Wind   Wind  Press.  Precip.   
Year   Day            Temp.  Hum.  Speed  Dir.   Gust                    
2015   (MST)  Kw/m2    F      %     mph   deg.    mph    mb.     in.     
-------------------------------------------------------------------------
  64   10:30   0.77   31.1    38    2.1   234     5.4   99999.0    0.00 
  64   10:40   0.78   32.8    33    4.1   151     8.4   99999.0    0.00 
  64   10:50   0.80   32.5    34    4.3   179     8.4   99999.0    0.00 
  64   11:00   0.81   33.6    34    3.3   140     7.8   99999.0    0.00 
  64   11:10   0.82   34.7    33    2.4    73     6.6   99999.0    0.00 
  64   11:20   0.83   37.1    30    2.3   149     4.2   99999.0    0.00 
  64   11:30   0.85   36.6    29    2.9   143     6.0   99999.0    0.00 
  64   11:40   0.86   36.6    26    2.8   157     6.6   99999.0    0.00 
  64   11:50   0.87   38.4    26    2.5   161     6.6   99999.0    0.00 
  64   12:00   0.87   37.2    28    2.8   144     7.2   99999.0    0.00 
  64   12:10   0.88   38.4    27    2.0   122     4.8   99999.0    0.00 
  64   12:20   0.87   39.0    25    2.3   201     5.4   99999.0    0.00 
  64   12:30   0.86   37.5    24    3.0   242     5.4   99999.0    0.00 
  64   12:40   0.86   37.1    23    2.9   194     6.0   99999.0    0.00 
  64   12:50   0.78   37.9    24    2.1   220     5.4   99999.0    0.00 
  64   13:00   0.84   38.0    25    2.5   239     6.0   99999.0    0.00 
  64   13:10   0.82   38.2    27    2.2   242     6.6   99999.0    0.00 
  64   13:20   0.81   37.8    29    2.7   279     6.0   99999.0    0.00 
  64   13:30   0.79   37.1    30    3.0   310     7.8   99999.0    0.00 
  64   13:40   0.77   37.7    30    2.3   305     5.4   99999.0    0.00 
  64   13:50   0.45   37.8    29    2.8   348     4.8   99999.0    0.00 
  64   14:00   0.06   38.6    26    3.1   308     6.0   99999.0    0.00 
  64   14:10   0.08   39.6    20    4.1   354     9.6   99999.0    0.00 
  64   14:20   0.08   40.0    17    3.2    40     9.6   99999.0    0.00 
  64   14:30   0.10   40.8    18    3.5    54     7.8   99999.0    0.00 
  64   14:40   0.21   40.6    18    3.3   354     6.6   99999.0    0.00 
  64   14:50   0.16   40.6    19    4.0    16     7.8   99999.0    0.00 
  64   15:00   0.31   39.8    19    4.4   328     7.8   99999.0    0.00 
  64   15:10   0.44   39.3    19    4.1     1     7.2   99999.0    0.00 
  64   15:20   0.31   39.2    18    4.6   321     9.0   99999.0    0.00 
  64   15:30   0.09   39.1    17    4.6   312    11.3   99999.0    0.00 
  64   15:40   0.05   38.8    15    4.7   327     9.0   99999.0    0.00 
  64   15:50   0.05   38.1    15    4.5   341    10.2   99999.0    0.00 
  64   16:00   0.04   38.0    16    4.1   348     9.0   99999.0    0.00 
  64   16:10   0.07   38.2    17    3.7    19     7.8   99999.0    0.00 
  64   16:20   0.12   38.0    18    3.5     7     8.4   99999.0    0.00 
  64   16:30   0.05   38.0    19    3.6   341     7.8   99999.0    0.00 
  64   16:40   0.10   37.2    21    4.1   310     8.4   99999.0    0.00 
  64   16:50   0.08   36.7    24    3.5   315     7.8   99999.0    0.00 
  64   17:00   0.03   36.2    27    3.4   298     6.6   99999.0    0.00 
  64   17:10   0.02   35.8    28    3.9   279    10.2   99999.0    0.00 
  64   17:20   0.02   35.4    27    3.9   295     6.6   99999.0    0.00 
  64   17:30   0.01   34.8    28    3.5   292     7.8   99999.0    0.00 
  64   17:40   0.01   34.5    29    2.1   300     5.4   99999.0    0.00 
  64   17:50   0.01   33.8    31    1.9   337     4.2   99999.0    0.00 
  64   18:00   0.01   33.0    32    2.4   308     4.8   99999.0    0.00 
  64   18:10   0.00   32.4    33    2.5   316     4.8   99999.0    0.00 
  64   18:20   0.00   31.6    35    3.8   324     7.2   99999.0    0.00 
  64   18:30   0.00   30.9    38    4.1   325     6.6   99999.0    0.00 
  64   18:40   0.00   31.0    34    2.9   334     5.4   99999.0    0.00 
  64   18:50   0.00   30.0    44    1.3   306     3.6   99999.0    0.00 
  64   19:00   0.00   28.4    45    1.1   125     3.6   99999.0    0.00 
  64   19:10   0.00   26.9    46    0.8    14     3.0   99999.0    0.00 
  64   19:20   0.00   26.3    45    1.2   353     4.8   99999.0    0.00 
  64   19:30   0.00   26.4    48    0.5   351     1.8   99999.0    0.00 
  64   19:40   0.00   26.4    44    1.5   337     3.6   99999.0    0.00 
  64   19:50   0.00   27.2    42    2.1   348     4.2   99999.0    0.00 
  64   20:00   0.00   27.4    41    2.2   341     4.2   99999.0    0.00 
  64   20:10   0.00   28.2    37    2.5   350     4.2   99999.0    0.00 
  64   20:20   0.00   28.5    35    2.8   355     5.4   99999.0    0.00 
  64   20:30   0.00   29.5    32    2.3   344     3.6   99999.0    0.00 
  64   20:40   0.00   30.2    29    2.7   335     4.8   99999.0    0.00 
  64   20:50   0.00   29.9    30    2.9   332     4.8   99999.0    0.00 
  64   21:00   0.00   29.4    29    3.1   334     4.2   99999.0    0.00 
  64   21:10   0.00   29.6    28    2.1   325     3.0   99999.0    0.00 
  64   21:20   0.00   30.3    26    1.0   310     2.4   99999.0    0.00 
  64   21:30   0.00   29.1    33    0.1   189     1.2   99999.0    0.00 
  64   21:40   0.00   26.7    32    0.1   158     1.2   99999.0    0.00 
  64   21:50   0.00   27.9    32    1.0   186     2.4   99999.0    0.00 
  64   22:00   0.00   27.6    37    0.7   182     1.8   99999.0    0.00 
  64   22:10   0.00   26.2    38    0.5   175     1.8   99999.0    0.00 
  64   22:20   0.00   24.8    39    0.3   164     1.2   99999.0    0.00 
  64   22:30   0.00   24.5    39    0.4   183     1.8   99999.0    0.00 
  64   22:40   0.00   24.3    40    1.3   183     1.8   99999.0    0.00 
  64   22:50   0.00   23.9    42    1.0   180     3.0   99999.0    0.00 
  64   23:00   0.00   23.9    48    1.2   182     3.0   99999.0    0.00 
  64   23:10   0.00   24.2    43    0.9   151     2.4   99999.0    0.00 
  64   23:20   0.00   23.5    44    1.2   164     1.8   99999.0    0.00 
  64   23:30   0.00   23.3    44    1.2   173     2.4   99999.0    0.00 
  64   23:40   0.00   23.0    47    1.3   175     2.1   99999.0    0.00 
  64   23:50   0.00   22.6    49    0.9   182     1.8   99999.0    0.00 
  65    0:00   0.00   22.3    52    0.4   162     1.8   99999.0    0.00 
  65    0:10   0.00   21.8    51    0.2   156     1.2   99999.0    0.00 
  65    0:20   0.00   21.9    52    0.0     0     0.0   99999.0    0.00 
  65    0:30   0.00   22.0    51    0.0     0     0.0   99999.0    0.00 
  65    0:40   0.00   23.2    50    0.4   172     1.8   99999.0    0.00 
  65    0:50   0.00   23.9    48    0.5   212     1.2   99999.0    0.00 
  65    1:00   0.00   24.4    47    0.2   223     1.2   99999.0    0.00 
  65    1:10   0.00   23.5    48    0.1   275     1.2   99999.0    0.00 
  65    1:20   0.00   23.0    48    0.0   245     1.2   99999.0    0.00 
  65    1:30   0.00   22.4    48    0.4   184     1.2   99999.0    0.00 
  65    1:40   0.00   23.2    48    0.8   287     2.4   99999.0    0.00 
  65    1:50   0.00   25.3    40    0.5   287     1.8   99999.0    0.00 
  65    2:00   0.00   24.2    41    0.1   215     1.2   99999.0    0.00 
  65    2:10   0.00   24.0    42    0.4   209     1.2   99999.0    0.00 
  65    2:20   0.00   23.9    42    0.8   172     1.8   99999.0    0.00 
  65    2:30   0.00   22.3    43    0.5   158     1.2   99999.0    0.00 
  65    2:40   0.00   22.0    46    0.8   155     1.8   99999.0    0.00 
  65    2:50   0.00   19.9    51    1.3   148     2.4   99999.0    0.00 
  65    3:00   0.00   20.2    50    0.9   153     1.8   99999.0    0.00 
  65    3:10   0.00   22.0    49    0.9   185     1.8   99999.0    0.00 
  65    3:20   0.00   22.4    48    0.0   317     1.2   99999.0    0.00 
  65    3:30   0.00   23.8    44    0.7   135     3.6   99999.0    0.00 
  65    3:40   0.00   22.3    46    0.4   161     1.8   99999.0    0.00 
  65    3:50   0.00   21.6    45    0.3   186     1.2   99999.0    0.00 
  65    4:00   0.00   21.4    46    0.4   169     1.8   99999.0    0.00 
  65    4:10   0.00   20.8    46    0.2   150     1.2   99999.0    0.00 
  65    4:20   0.00   20.3    47    0.2   168     1.2   99999.0    0.00 
  65    4:30   0.00   20.8    51    0.0   145     1.2   99999.0    0.00 
  65    4:40   0.00   21.1    49    0.0     0     0.0   99999.0    0.00 
  65    4:50   0.00   20.6    50    0.0     0     0.0   99999.0    0.00 
  65    5:00   0.00   20.9    54    0.0     0     0.0   99999.0    0.00 
  65    5:10   0.00   21.2    56    0.0   241     1.2   99999.0    0.00 
  65    5:20   0.00   21.3    55    0.0     0     0.0   99999.0    0.00 
  65    5:30   0.00   21.3    56    0.4   217     1.2   99999.0    0.00 
  65    5:40   0.00   21.5    54    0.1   211     1.2   99999.0    0.00 
  65    5:50   0.00   21.1    54    0.1   230     1.2   99999.0    0.00 
  65    6:00   0.00   20.8    54    0.0     0     0.0   99999.0    0.00 
  65    6:10   0.00   20.9    54    0.0     0     0.0   99999.0    0.00 
  65    6:20   0.00   20.9    50    0.0     0     0.0   99999.0    0.00 
  65    6:30   0.00   20.7    52    0.0     0     0.0   99999.0    0.00 
  65    6:40   0.00   20.8    50    0.0     0     0.0   99999.0    0.00 
  65    6:50   0.01   21.1    48    0.0     0     0.0   99999.0    0.00 
  65    7:00   0.01   21.6    45    0.0     0     0.0   99999.0    0.00 
  65    7:10   0.02   21.8    42    0.0     0     0.0   99999.0    0.00 
  65    7:20   0.03   22.2    41    0.0     0     0.0   99999.0    0.00 
  65    7:30   0.03   22.8    39    0.4   354     1.8   99999.0    0.00 
  65    7:40   0.04   24.2    37    0.6     3     1.8   99999.0    0.00 
  65    7:50   0.05   25.3    40    0.3    83     1.2   99999.0    0.00 
  65    8:00   0.06   26.8    34    1.0    11     1.8   99999.0    0.00 
  65    8:10   0.18   28.8    33    0.7    56     1.8   99999.0    0.00 
  65    8:20   0.15   29.5    35    1.5   152     3.0   99999.0    0.00 
  65    8:30   0.35   31.1    34    0.9    22     1.8   99999.0    0.00 
  65    8:40   0.47   33.3    34    1.0    65     1.8   99999.0    0.00 
  65    8:50   0.43   35.0    30    1.3   145     3.6   99999.0    0.00 
  65    9:00   0.15   36.9    26    1.4   117     3.0   99999.0    0.00 
  65    9:10   0.25   38.7    27    2.7   159     5.1   99999.0    0.00 
  65    9:20   0.11   39.0    27    2.8   146     6.6   99999.0    0.00 
  65    9:30   0.11   39.8    26    1.7   167     3.9   99999.0    0.00 
  65    9:40   0.44   40.1    26    1.6   289     4.2   99999.0    0.00 
  65    9:50   0.18   39.5    26    1.8   336     3.6   99999.0    0.00 
  65   10:00   0.32   41.2    26    1.4   222     3.6   99999.0    0.00 
  65   10:10   0.73   41.9    25    1.4   124     6.0   99999.0    0.00 
  65   10:20   0.74   42.0    25    3.2   174     6.0   99999.0    0.00 

Return to Conejos, Valles Caldera graphs page.


Western Regional Climate Center,wrcc@dri.edu